Aviation Digital Data Service (ADDS)

Output produced by TAFs form (1739 UTC 21 April 2018)
found at http://aviationweather.gov/adds/tafs/
 
TAF ROIG 211710Z 2118/2300 15005KT 8000 FEW005 BKN008 
     TEMPO 2118/2121 0800 FG VV001 
     TEMPO 2121/2200 FEW003 BKN005 
     BECMG 2200/2202 FEW008 BKN010 
     TEMPO 2212/2221 FEW003 BKN008